createdAt,value
2022-09-07T00:01:07.815Z,96244.78
2022-09-07T00:03:36.679Z,96244.50
2022-09-07T00:06:07.571Z,96234.63
2022-09-07T00:08:36.141Z,96231.31
2022-09-07T00:11:09.096Z,96233.66
2022-09-07T00:13:39.383Z,96228.66
2022-09-07T00:16:09.441Z,96228.63
2022-09-07T00:18:40.333Z,96221.94
2022-09-07T00:21:13.249Z,96230.38
2022-09-07T00:23:41.812Z,96225.91
2022-09-07T00:26:13.388Z,96212.38
2022-09-07T00:28:42.540Z,96220.72
2022-09-07T00:31:12.281Z,96219.81
2022-09-07T00:33:40.848Z,96227.78
2022-09-07T00:36:09.362Z,96217.94
2022-09-07T00:38:38.062Z,96222.03
2022-09-07T00:41:06.864Z,96218.22
2022-09-07T00:43:39.186Z,96215.75
2022-09-07T00:46:10.754Z,96206.66
2022-09-07T00:48:41.698Z,96218.78
2022-09-07T00:51:13.375Z,96216.78
2022-09-07T00:53:45.274Z,96204.06
2022-09-07T00:56:14.588Z,96203.38
2022-09-07T00:58:44.645Z,96207.94
2022-09-07T01:01:13.276Z,96209.66
2022-09-07T01:03:45.661Z,96216.44
2022-09-07T01:06:17.629Z,96215.44
2022-09-07T01:08:47.103Z,96211.78
2022-09-07T01:11:15.570Z,96204.22
2022-09-07T01:13:46.215Z,96209.72
2022-09-07T01:16:24.766Z,96212.28
2022-09-07T01:18:58.964Z,96212.13
2022-09-07T01:21:28.574Z,96208.19
2022-09-07T01:24:25.343Z,96212.88
2022-09-07T01:27:29.428Z,96218.22
2022-09-07T01:30:05.632Z,96214.28
2022-09-07T01:32:44.909Z,96216.88
2022-09-07T01:35:17.421Z,96220.84
2022-09-07T01:37:56.347Z,96223.91
2022-09-07T01:40:30.279Z,96222.63
2022-09-07T01:43:02.929Z,96233.78
2022-09-07T01:45:36.736Z,96234.25
2022-09-07T01:48:07.391Z,96236.00
2022-09-07T01:50:40.001Z,96229.00
2022-09-07T01:53:15.270Z,96230.75
2022-09-07T01:55:46.492Z,96234.81
2022-09-07T01:58:19.077Z,96230.84
2022-09-07T02:00:52.213Z,96233.31
2022-09-07T02:03:24.490Z,96227.50
2022-09-07T02:05:58.489Z,96232.09
2022-09-07T02:08:29.111Z,96233.00
2022-09-07T02:11:00.585Z,96228.22
2022-09-07T02:13:34.332Z,96233.38
2022-09-07T02:16:07.468Z,96232.91
2022-09-07T02:18:38.771Z,96231.13
2022-09-07T02:21:09.291Z,96228.22
2022-09-07T02:23:38.616Z,96224.25
2022-09-07T02:26:08.812Z,96225.28
2022-09-07T02:28:38.109Z,96222.97
2022-09-07T02:31:08.827Z,96227.75
2022-09-07T02:33:37.601Z,96233.72
2022-09-07T02:36:06.866Z,96232.13
2022-09-07T02:38:36.382Z,96231.78
2022-09-07T02:41:05.927Z,96236.66
2022-09-07T02:43:34.657Z,96235.66
2022-09-07T02:46:15.141Z,96238.94
2022-09-07T02:48:44.323Z,96237.94
2022-09-07T02:51:16.803Z,96234.78
2022-09-07T02:53:55.910Z,96234.38
2022-09-07T02:56:33.866Z,96224.72
2022-09-07T02:59:07.984Z,96222.22
2022-09-07T03:01:44.567Z,96226.44
2022-09-07T03:04:15.297Z,96208.53
2022-09-07T03:06:45.604Z,96211.56
2022-09-07T03:09:17.911Z,96210.28
2022-09-07T03:11:46.440Z,96201.16
2022-09-07T03:14:16.244Z,96209.94
2022-09-07T03:16:46.323Z,96209.16
2022-09-07T03:19:14.739Z,96206.56
2022-09-07T03:21:43.279Z,96211.75
2022-09-07T03:24:11.921Z,96205.13
2022-09-07T03:26:42.866Z,96200.59
2022-09-07T03:29:11.277Z,96209.72
2022-09-07T03:31:39.840Z,96198.47
2022-09-07T03:34:09.926Z,96198.47
2022-09-07T03:36:38.415Z,96193.09
2022-09-07T03:39:07.452Z,96205.38
2022-09-07T03:41:35.993Z,96201.38
2022-09-07T03:44:05.553Z,96200.53
2022-09-07T03:46:34.329Z,96203.63
2022-09-07T03:49:02.835Z,96220.00
2022-09-07T03:51:32.581Z,96244.88
2022-09-07T03:54:00.983Z,96239.44
2022-09-07T03:56:29.352Z,96239.31
2022-09-07T03:58:57.919Z,96240.16
2022-09-07T04:01:27.158Z,96232.94
2022-09-07T04:04:02.699Z,96228.03
2022-09-07T04:06:33.362Z,96224.31
2022-09-07T04:09:03.219Z,96231.56
2022-09-07T04:11:31.900Z,96236.44
2022-09-07T04:14:00.355Z,96226.66
2022-09-07T04:16:29.308Z,96227.75
2022-09-07T04:18:59.231Z,96220.25
2022-09-07T04:21:28.992Z,96229.25
2022-09-07T04:23:59.102Z,96231.94
2022-09-07T04:26:29.029Z,96223.66
2022-09-07T04:28:57.425Z,96229.28
2022-09-07T04:31:26.314Z,96225.28
2022-09-07T04:33:55.939Z,96223.41
2022-09-07T04:36:25.811Z,96220.44
2022-09-07T04:38:59.708Z,96219.88
2022-09-07T04:41:28.815Z,96226.06
2022-09-07T04:43:58.429Z,96222.13
2022-09-07T04:46:28.146Z,96218.66
2022-09-07T04:48:57.654Z,96219.50
2022-09-07T04:51:27.957Z,96215.84
2022-09-07T04:53:59.127Z,96228.91
2022-09-07T04:56:27.817Z,96234.78
2022-09-07T04:58:56.695Z,96237.13
2022-09-07T05:01:26.170Z,96225.63
2022-09-07T05:03:54.746Z,96222.94
2022-09-07T05:06:23.470Z,96229.25
2022-09-07T05:08:54.112Z,96225.69
2022-09-07T05:11:29.115Z,96236.03
2022-09-07T05:14:00.447Z,96239.59
2022-09-07T05:16:29.697Z,96244.84
2022-09-07T05:18:59.511Z,96244.50
2022-09-07T05:21:29.802Z,96245.03
2022-09-07T05:23:59.277Z,96252.44
2022-09-07T05:26:30.161Z,96259.09
2022-09-07T05:31:51.163Z,96276.00
2022-09-07T05:34:35.025Z,96260.38
2022-09-07T05:37:03.810Z,96255.34
2022-09-07T05:39:32.291Z,96263.31
2022-09-07T05:42:02.100Z,96262.13
2022-09-07T05:44:47.438Z,96272.91
2022-09-07T05:47:15.927Z,96267.69
2022-09-07T05:49:44.353Z,96274.97
2022-09-07T05:52:12.915Z,96287.38
2022-09-07T05:54:41.456Z,96289.53
2022-09-07T05:57:13.550Z,96294.13
2022-09-07T05:59:41.988Z,96295.09
2022-09-07T06:02:12.398Z,96305.69
2022-09-07T06:04:40.942Z,96322.06
2022-09-07T06:07:21.681Z,96323.47
2022-09-07T06:12:43.370Z,96333.56
2022-09-07T06:15:14.118Z,96333.34
2022-09-07T06:17:42.533Z,96329.28
2022-09-07T06:20:11.626Z,96330.50
2022-09-07T06:22:40.174Z,96334.22
2022-09-07T06:25:09.344Z,96338.75
2022-09-07T06:27:37.749Z,96337.66
2022-09-07T06:30:08.500Z,96342.28
2022-09-07T06:32:45.560Z,96334.94
2022-09-07T06:35:14.841Z,96342.66
2022-09-07T06:37:43.356Z,96328.56
2022-09-07T06:40:12.674Z,96324.34
2022-09-07T06:42:41.138Z,96333.03
2022-09-07T06:45:11.735Z,96328.50
2022-09-07T06:47:41.251Z,96317.13
2022-09-07T06:50:10.739Z,96319.13
2022-09-07T06:55:28.775Z,96322.50
2022-09-07T06:57:57.232Z,96320.31
2022-09-07T07:00:26.957Z,96321.56
2022-09-07T07:02:55.442Z,96323.63
2022-09-07T07:05:23.862Z,96316.66
2022-09-07T07:07:52.219Z,96317.72
2022-09-07T07:10:24.563Z,96319.19
2022-09-07T07:12:57.451Z,96314.00
2022-09-07T07:15:29.449Z,96317.59
2022-09-07T07:18:13.482Z,96323.03
2022-09-07T07:20:46.837Z,96312.38
2022-09-07T07:23:15.370Z,96322.13
2022-09-07T07:25:43.789Z,96323.16
2022-09-07T07:31:07.354Z,96329.13
2022-09-07T07:33:39.756Z,96335.63
2022-09-07T07:36:10.470Z,96353.34
2022-09-07T07:44:20.274Z,96337.47
2022-09-07T07:46:50.898Z,96334.75
2022-09-07T07:49:19.784Z,96327.41
2022-09-07T07:54:37.882Z,96334.75
2022-09-07T07:57:06.837Z,96332.13
2022-09-07T07:59:35.278Z,96328.16
2022-09-07T08:02:05.881Z,96331.69
2022-09-07T08:04:35.086Z,96334.16
2022-09-07T08:07:09.573Z,96333.84
2022-09-07T08:09:39.810Z,96334.25
2022-09-07T08:12:08.489Z,96322.19
2022-09-07T08:14:40.831Z,96331.97
2022-09-07T08:17:12.243Z,96322.59
2022-09-07T08:19:41.323Z,96323.66
2022-09-07T08:22:10.679Z,96327.56
2022-09-07T08:24:38.976Z,96314.97
2022-09-07T08:27:07.490Z,96318.78
2022-09-07T08:29:36.652Z,96318.16
2022-09-07T08:32:06.488Z,96319.78
2022-09-07T08:34:38.273Z,96323.41
2022-09-07T08:37:06.506Z,96325.50
2022-09-07T08:39:34.812Z,96319.38
2022-09-07T08:42:17.200Z,96321.59
2022-09-07T08:44:47.555Z,96314.88
2022-09-07T08:47:22.978Z,96310.09
2022-09-07T08:49:55.949Z,96303.59
2022-09-07T08:52:27.415Z,96306.94
2022-09-07T08:55:04.797Z,96316.81
2022-09-07T08:57:36.730Z,96311.19
2022-09-07T09:00:08.055Z,96320.13
2022-09-07T09:02:42.505Z,96320.91
2022-09-07T09:05:23.284Z,96320.06
2022-09-07T09:08:01.030Z,96319.56
2022-09-07T09:10:35.990Z,96314.72
2022-09-07T09:13:13.671Z,96310.31
2022-09-07T09:15:58.297Z,96311.63
2022-09-07T09:18:40.760Z,96301.66
2022-09-07T09:21:14.162Z,96305.03
2022-09-07T09:23:43.719Z,96302.84
2022-09-07T09:26:15.692Z,96299.00
2022-09-07T09:28:43.950Z,96303.63
2022-09-07T09:31:18.109Z,96307.47
2022-09-07T09:34:11.139Z,96305.81
2022-09-07T09:36:46.124Z,96291.97
2022-09-07T09:39:32.013Z,96297.13
2022-09-07T09:42:14.337Z,96298.19
2022-09-07T09:44:43.882Z,96299.59
2022-09-07T09:47:30.152Z,96292.19
2022-09-07T09:50:01.045Z,96288.44
2022-09-07T09:52:40.357Z,96293.81
2022-09-07T09:55:34.339Z,96284.88
2022-09-07T10:04:02.664Z,96286.53
2022-09-07T10:06:33.183Z,96283.66
2022-09-07T10:09:03.355Z,96278.16
2022-09-07T10:14:33.410Z,96281.69
2022-09-07T10:17:02.399Z,96288.09
2022-09-07T10:19:36.043Z,96281.50
2022-09-07T10:22:22.213Z,96283.09
2022-09-07T10:24:52.182Z,96280.13
2022-09-07T10:27:25.221Z,96271.03
2022-09-07T10:29:53.442Z,96259.78
2022-09-07T10:32:27.877Z,96257.66
2022-09-07T10:35:05.250Z,96265.25
2022-09-07T10:37:42.340Z,96265.75
2022-09-07T10:40:21.905Z,96267.09
2022-09-07T10:46:00.359Z,96263.75
2022-09-07T10:48:34.640Z,96262.88
2022-09-07T10:51:13.798Z,96262.53
2022-09-07T10:53:46.988Z,96254.34
2022-09-07T10:56:22.532Z,96255.41
2022-09-07T10:59:02.206Z,96252.41
2022-09-07T11:01:40.407Z,96249.41
2022-09-07T11:04:23.226Z,96236.63
2022-09-07T11:06:54.143Z,96237.84
2022-09-07T11:09:42.113Z,96214.91
2022-09-07T11:12:16.620Z,96220.88
2022-09-07T11:14:50.107Z,96224.56
2022-09-07T11:17:21.890Z,96217.22
2022-09-07T11:19:54.874Z,96220.56
2022-09-07T11:22:31.229Z,96216.81
2022-09-07T11:27:57.621Z,96205.09
2022-09-07T11:30:28.512Z,96189.81
2022-09-07T11:33:03.204Z,96182.41
2022-09-07T11:35:36.261Z,96177.53
2022-09-07T11:38:12.258Z,96174.31
2022-09-07T11:40:43.918Z,96182.78
2022-09-07T11:43:19.017Z,96187.03
2022-09-07T11:45:50.625Z,96183.28
2022-09-07T11:48:21.492Z,96180.19
2022-09-07T11:50:51.784Z,96174.72
2022-09-07T11:53:22.750Z,96171.47
2022-09-07T11:55:56.054Z,96173.53
2022-09-07T11:58:44.157Z,96171.31
2022-09-07T12:01:21.500Z,96172.97
2022-09-07T12:04:16.463Z,96166.94
2022-09-07T12:06:55.902Z,96163.91
2022-09-07T12:09:38.002Z,96173.03
2022-09-07T12:12:21.112Z,96161.31
2022-09-07T12:14:59.222Z,96176.44
2022-09-07T12:17:48.963Z,96168.78
2022-09-07T12:20:19.254Z,96165.94
2022-09-07T12:23:04.867Z,96162.38
2022-09-07T12:25:35.094Z,96165.56
2022-09-07T12:28:03.390Z,96161.19
2022-09-07T12:31:04.340Z,96162.94
2022-09-07T12:33:34.877Z,96159.38
2022-09-07T12:36:04.040Z,96157.47
2022-09-07T12:39:21.446Z,96149.03
2022-09-07T12:42:31.753Z,96149.78
2022-09-07T12:44:40.835Z,96155.41
2022-09-07T12:47:27.699Z,96149.16
2022-09-07T12:50:21.914Z,96149.13
2022-09-07T12:53:11.789Z,96148.97
2022-09-07T12:59:00.162Z,96143.03
2022-09-07T13:01:37.939Z,96139.19
2022-09-07T13:04:25.714Z,96143.78
2022-09-07T13:07:18.818Z,96142.13
2022-09-07T13:09:56.252Z,96121.25
2022-09-07T13:15:35.494Z,96110.69
2022-09-07T13:18:04.801Z,96104.56
2022-09-07T13:20:39.642Z,96105.38
2022-09-07T13:23:24.821Z,96096.44
2022-09-07T13:25:55.962Z,96104.63
2022-09-07T13:28:43.669Z,96100.16
2022-09-07T13:31:32.341Z,96094.84
2022-09-07T13:34:00.709Z,96097.72
2022-09-07T13:36:37.572Z,96089.06
2022-09-07T13:39:09.836Z,96081.78
2022-09-07T13:41:43.044Z,96088.16
2022-09-07T13:44:25.031Z,96083.81
2022-09-07T13:47:13.153Z,96084.78
2022-09-07T13:50:01.781Z,96079.66
2022-09-07T13:52:44.896Z,96079.16
2022-09-07T13:55:27.547Z,96072.75
2022-09-07T13:58:05.501Z,96074.69
2022-09-07T14:00:34.051Z,96072.69
2022-09-07T14:03:06.206Z,96071.72
2022-09-07T14:05:36.157Z,96069.06
2022-09-07T14:08:05.515Z,96063.84
2022-09-07T14:10:33.672Z,96063.97
2022-09-07T14:13:08.350Z,96062.06
2022-09-07T14:15:39.259Z,96059.09
2022-09-07T14:18:12.618Z,96049.66
2022-09-07T14:20:43.558Z,96052.09
2022-09-07T14:23:17.178Z,96049.53
2022-09-07T14:28:38.183Z,96043.50
2022-09-07T14:31:07.268Z,96028.25
2022-09-07T14:33:35.522Z,96031.59
2022-09-07T14:36:23.307Z,96023.09
2022-09-07T14:39:10.311Z,96031.69
2022-09-07T14:41:40.561Z,96028.25
2022-09-07T14:44:28.445Z,96023.72
2022-09-07T14:46:57.519Z,96027.38
2022-09-07T14:49:25.905Z,96025.22
2022-09-07T14:51:55.242Z,96029.56
2022-09-07T14:54:28.331Z,96033.28
2022-09-07T14:57:07.926Z,96029.03
2022-09-07T14:59:41.619Z,96024.03
2022-09-07T15:02:24.906Z,96030.53
2022-09-07T15:05:15.935Z,96031.97
2022-09-07T15:07:47.405Z,96021.81
2022-09-07T15:10:27.789Z,96011.94
2022-09-07T15:12:57.603Z,96018.00
2022-09-07T15:15:27.683Z,96010.91
2022-09-07T15:18:03.097Z,96010.53
2022-09-07T15:20:35.920Z,96013.94
2022-09-07T15:23:05.867Z,96006.84
2022-09-07T15:25:35.262Z,96008.53
2022-09-07T15:28:04.040Z,95997.38
2022-09-07T15:30:33.504Z,95994.84
2022-09-07T15:33:02.213Z,95990.97
2022-09-07T15:35:30.477Z,95982.09
2022-09-07T15:38:03.234Z,95981.00
2022-09-07T15:40:56.211Z,95992.06
2022-09-07T15:43:29.925Z,95991.38
2022-09-07T15:45:58.271Z,95984.41
2022-09-07T15:48:26.671Z,95980.31
2022-09-07T15:51:03.392Z,95983.59
2022-09-07T15:56:22.497Z,95980.31
2022-09-07T15:58:52.520Z,95980.66
2022-09-07T16:04:12.722Z,95978.13
2022-09-07T16:06:41.162Z,95974.09
2022-09-07T16:09:09.637Z,95971.44
2022-09-07T16:11:39.285Z,95972.00
2022-09-07T16:14:11.690Z,95965.22
2022-09-07T16:19:28.496Z,95960.22
2022-09-07T16:21:57.604Z,95955.53
2022-09-07T16:24:27.827Z,95953.25
2022-09-07T16:26:57.195Z,95950.31
2022-09-07T16:29:25.384Z,95947.91
2022-09-07T16:34:41.817Z,95944.16
2022-09-07T16:37:10.007Z,95943.94
2022-09-07T16:39:38.284Z,95943.41
2022-09-07T16:42:08.952Z,95945.56
2022-09-07T16:44:37.219Z,95941.44
2022-09-07T16:47:05.600Z,95938.16
2022-09-07T16:49:33.826Z,95937.75
2022-09-07T16:52:02.040Z,95926.41
2022-09-07T16:54:30.854Z,95924.97
2022-09-07T16:57:00.730Z,95926.78
2022-09-07T16:59:31.135Z,95932.22
2022-09-07T17:01:59.401Z,95925.47
2022-09-07T17:04:27.911Z,95921.41
2022-09-07T17:06:56.566Z,95931.31
2022-09-07T17:09:26.707Z,95918.75
2022-09-07T17:11:54.782Z,95922.53
2022-09-07T17:14:23.074Z,95918.72
2022-09-07T17:16:52.749Z,95920.78
2022-09-07T17:19:29.743Z,95926.69
2022-09-07T17:21:59.726Z,95930.81
2022-09-07T17:24:29.609Z,95925.69
2022-09-07T17:27:00.167Z,95932.41
2022-09-07T17:29:30.477Z,95928.25
2022-09-07T17:34:51.387Z,95936.09
2022-09-07T17:37:19.924Z,95930.03
2022-09-07T17:39:48.320Z,95934.50
2022-09-07T17:42:17.043Z,95926.50
2022-09-07T17:44:45.338Z,95927.03
2022-09-07T17:47:14.926Z,95928.72
2022-09-07T17:49:43.182Z,95934.78
2022-09-07T17:52:11.447Z,95923.41
2022-09-07T17:54:39.845Z,95928.81
2022-09-07T17:57:08.061Z,95920.47
2022-09-07T18:02:26.025Z,95915.63
2022-09-07T18:04:54.347Z,95916.66
2022-09-07T18:07:22.756Z,95927.50
2022-09-07T18:09:51.030Z,95924.56
2022-09-07T18:12:19.257Z,95929.59
2022-09-07T18:14:47.560Z,95929.59
2022-09-07T18:17:15.862Z,95929.06
2022-09-07T18:19:45.438Z,95929.44
2022-09-07T18:22:15.214Z,95923.19
2022-09-07T18:24:43.815Z,95914.09
2022-09-07T18:27:12.034Z,95916.25
2022-09-07T18:29:40.475Z,95913.78
2022-09-07T18:32:09.850Z,95902.16
2022-09-07T18:34:40.732Z,95909.75
2022-09-07T18:37:12.208Z,95907.06
2022-09-07T18:39:41.555Z,95917.63
2022-09-07T18:42:10.309Z,95910.25
2022-09-07T18:47:29.530Z,95919.31
2022-09-07T18:49:58.511Z,95916.84
2022-09-07T18:55:17.331Z,95927.72
2022-09-07T18:57:45.563Z,95922.28
2022-09-07T19:00:14.824Z,95929.34
2022-09-07T19:02:43.258Z,95934.72
2022-09-07T19:08:03.503Z,95931.41
2022-09-07T19:10:35.289Z,95928.91
2022-09-07T19:13:03.549Z,95936.22
2022-09-07T19:15:37.182Z,95933.47
2022-09-07T19:18:07.294Z,95942.19
2022-09-07T19:20:36.024Z,95939.69
2022-09-07T19:23:05.713Z,95941.03
2022-09-07T19:25:34.007Z,95948.06
2022-09-07T19:28:02.295Z,95939.91
2022-09-07T19:30:30.552Z,95948.03
2022-09-07T19:33:03.525Z,95938.28
2022-09-07T19:35:36.269Z,95943.94
2022-09-07T19:38:05.993Z,95942.31
2022-09-07T19:40:34.373Z,95942.38
2022-09-07T19:43:02.613Z,95940.91
2022-09-07T19:45:30.861Z,95938.47
2022-09-07T19:47:59.267Z,95932.50
2022-09-07T19:50:27.853Z,95932.78
2022-09-07T19:52:57.061Z,95924.88
2022-09-07T19:55:27.437Z,95918.88
2022-09-07T19:57:55.623Z,95917.94
2022-09-07T20:00:24.647Z,95918.63
2022-09-07T20:02:54.237Z,95917.72
2022-09-07T20:05:23.724Z,95913.38
2022-09-07T20:07:51.947Z,95912.16
2022-09-07T20:10:20.530Z,95918.84
2022-09-07T20:12:50.256Z,95920.44
2022-09-07T20:15:18.541Z,95921.69
2022-09-07T20:17:47.392Z,95917.06
2022-09-07T20:20:15.753Z,95916.25
2022-09-07T20:22:43.992Z,95915.56
2022-09-07T20:25:13.388Z,95913.19
2022-09-07T20:27:41.944Z,95907.44
2022-09-07T20:30:12.844Z,95903.19
2022-09-07T20:32:41.086Z,95889.97
2022-09-07T20:35:10.788Z,95897.09
2022-09-07T20:37:39.011Z,95888.75
2022-09-07T20:40:08.467Z,95881.44
2022-09-07T20:42:36.756Z,95883.06
2022-09-07T20:45:05.626Z,95882.56
2022-09-07T20:47:35.445Z,95872.56
2022-09-07T20:50:03.706Z,95871.16
2022-09-07T20:52:31.926Z,95864.91
2022-09-07T20:55:00.651Z,95857.75
2022-09-07T20:57:29.006Z,95853.59
2022-09-07T20:59:57.309Z,95848.44
2022-09-07T21:02:25.669Z,95846.03
2022-09-07T21:04:55.321Z,95837.84
2022-09-07T21:07:24.284Z,95833.56
2022-09-07T21:09:52.613Z,95830.91
2022-09-07T21:12:20.899Z,95822.53
2022-09-07T21:14:49.084Z,95819.03
2022-09-07T21:17:17.383Z,95822.44
2022-09-07T21:19:45.666Z,95824.50
2022-09-07T21:22:15.332Z,95830.44
2022-09-07T21:24:43.601Z,95818.72
2022-09-07T21:27:11.907Z,95823.97
2022-09-07T21:29:40.159Z,95818.06
2022-09-07T21:32:08.429Z,95821.50
2022-09-07T21:34:36.719Z,95822.25
2022-09-07T21:37:04.951Z,95816.88
2022-09-07T21:39:34.648Z,95820.19
2022-09-07T21:42:02.936Z,95813.63
2022-09-07T21:44:31.179Z,95812.88
2022-09-07T21:46:59.630Z,95805.00
2022-09-07T21:49:27.920Z,95811.59
2022-09-07T21:51:56.155Z,95806.81
2022-09-07T21:54:24.377Z,95804.97
2022-09-07T21:56:54.245Z,95797.59
2022-09-07T21:59:22.522Z,95791.28
2022-09-07T22:01:50.885Z,95797.69
2022-09-07T22:04:19.266Z,95803.56
2022-09-07T22:06:47.560Z,95808.13
2022-09-07T22:09:16.070Z,95812.28
2022-09-07T22:11:46.227Z,95805.88
2022-09-07T22:14:16.696Z,95810.53
2022-09-07T22:16:45.266Z,95804.72
2022-09-07T22:19:13.542Z,95807.00
2022-09-07T22:21:41.818Z,95789.38
2022-09-07T22:24:12.670Z,95795.41
2022-09-07T22:26:41.051Z,95798.00
2022-09-07T22:29:11.713Z,95800.41
2022-09-07T22:31:42.049Z,95793.84
2022-09-07T22:34:10.388Z,95790.03
2022-09-07T22:36:40.270Z,95792.69
2022-09-07T22:39:11.694Z,95780.72
2022-09-07T22:41:41.692Z,95788.34
2022-09-07T22:44:12.450Z,95793.56
2022-09-07T22:46:43.792Z,95799.59
2022-09-07T22:49:13.110Z,95807.03
2022-09-07T22:51:41.370Z,95806.66
2022-09-07T22:54:09.624Z,95823.78
2022-09-07T22:56:38.330Z,95832.13
2022-09-07T22:59:08.819Z,95859.75
2022-09-07T23:01:36.999Z,95872.69
2022-09-07T23:04:07.143Z,95868.31
2022-09-07T23:06:37.034Z,95865.22
2022-09-07T23:09:07.099Z,95858.88
2022-09-07T23:11:35.366Z,95852.31
2022-09-07T23:14:05.471Z,95860.50
2022-09-07T23:16:33.739Z,95859.41
2022-09-07T23:19:02.057Z,95864.81
2022-09-07T23:21:31.641Z,95853.25
2022-09-07T23:24:00.754Z,95854.34
2022-09-07T23:26:30.276Z,95841.16
2022-09-07T23:29:00.741Z,95851.69
2022-09-07T23:31:30.599Z,95865.56
2022-09-07T23:33:59.140Z,95850.22
2022-09-07T23:36:27.676Z,95843.94
2022-09-07T23:38:58.283Z,95845.00
2022-09-07T23:41:27.051Z,95838.28
2022-09-07T23:43:56.150Z,95834.38
2022-09-07T23:46:24.629Z,95835.44
2022-09-07T23:48:53.113Z,95835.59
2022-09-07T23:51:24.173Z,95842.50
2022-09-07T23:53:53.435Z,95849.56
2022-09-07T23:56:24.446Z,95848.59
2022-09-07T23:58:53.025Z,95837.50
